createdAt,value
2018-07-10T00:02:32.782Z,21.00
2018-07-10T00:05:53.449Z,21.00
2018-07-10T00:08:59.269Z,20.90
2018-07-10T00:11:32.221Z,20.90
2018-07-10T00:14:03.307Z,20.80
2018-07-10T00:16:34.084Z,20.80
2018-07-10T00:19:04.362Z,20.70
2018-07-10T00:21:35.088Z,20.70
2018-07-10T00:24:05.324Z,20.80
2018-07-10T00:26:42.819Z,20.80
2018-07-10T00:29:14.148Z,20.80
2018-07-10T00:31:44.373Z,20.80
2018-07-10T00:34:16.554Z,20.70
2018-07-10T00:36:46.870Z,20.70
2018-07-10T00:39:17.500Z,20.70
2018-07-10T00:41:49.535Z,20.60
2018-07-10T00:44:19.832Z,20.60
2018-07-10T00:46:50.639Z,20.50
2018-07-10T00:49:21.327Z,20.50
2018-07-10T00:51:51.966Z,20.50
2018-07-10T00:54:22.570Z,20.40
2018-07-10T00:56:54.256Z,20.40
2018-07-10T00:59:24.548Z,20.50
2018-07-10T01:01:56.853Z,20.50
2018-07-10T01:04:28.072Z,20.50
2018-07-10T01:06:58.156Z,20.50
2018-07-10T01:09:28.972Z,20.50
2018-07-10T01:11:59.957Z,20.50
2018-07-10T01:14:31.370Z,20.60
2018-07-10T01:17:02.021Z,20.60
2018-07-10T01:19:33.133Z,20.60
2018-07-10T01:22:03.613Z,20.60
2018-07-10T01:24:34.480Z,20.70
2018-07-10T01:27:05.312Z,20.70
2018-07-10T01:29:40.724Z,20.70
2018-07-10T01:32:11.499Z,20.70
2018-07-10T01:34:41.974Z,20.80
2018-07-10T01:37:12.688Z,20.80
2018-07-10T01:39:43.795Z,20.80
2018-07-10T01:42:14.873Z,20.80
2018-07-10T01:44:45.268Z,20.80
2018-07-10T01:47:16.581Z,20.80
2018-07-10T01:49:46.970Z,20.80
2018-07-10T01:52:17.320Z,20.90
2018-07-10T01:54:47.873Z,20.90
2018-07-10T01:57:18.290Z,20.90
2018-07-10T01:59:48.888Z,20.90
2018-07-10T02:02:22.444Z,20.90
2018-07-10T02:04:55.003Z,20.90
2018-07-10T02:07:26.769Z,20.80
2018-07-10T02:09:57.249Z,20.80
2018-07-10T02:12:27.736Z,20.80
2018-07-10T02:14:58.620Z,20.80
2018-07-10T02:17:29.471Z,20.80
2018-07-10T02:19:59.816Z,20.90
2018-07-10T02:22:30.177Z,20.90
2018-07-10T02:25:01.554Z,20.90
2018-07-10T02:27:32.032Z,20.90
2018-07-10T02:30:02.243Z,20.80
2018-07-10T02:32:33.208Z,20.80
2018-07-10T02:35:04.306Z,20.80
2018-07-10T02:37:35.474Z,20.70
2018-07-10T02:40:07.500Z,20.70
2018-07-10T02:42:38.778Z,20.60
2018-07-10T02:45:10.077Z,20.50
2018-07-10T02:47:41.939Z,20.40
2018-07-10T02:50:13.302Z,20.30
2018-07-10T02:52:44.739Z,20.30
2018-07-10T02:55:15.703Z,20.20
2018-07-10T02:57:46.541Z,20.20
2018-07-10T03:00:17.786Z,20.10
2018-07-10T03:02:48.915Z,20.10
2018-07-10T03:05:20.033Z,20.00
2018-07-10T03:07:51.489Z,20.00
2018-07-10T03:10:21.803Z,20.00
2018-07-10T03:12:52.640Z,19.90
2018-07-10T03:15:23.923Z,19.90
2018-07-10T03:17:54.566Z,19.80
2018-07-10T03:20:25.238Z,19.80
2018-07-10T03:22:55.684Z,19.80
2018-07-10T03:25:26.417Z,19.80
2018-07-10T03:27:57.240Z,19.80
2018-07-10T03:30:27.736Z,19.90
2018-07-10T03:32:58.261Z,19.90
2018-07-10T03:35:29.333Z,19.90
2018-07-10T03:38:00.136Z,19.90
2018-07-10T03:40:31.505Z,20.00
2018-07-10T03:43:01.785Z,20.00
2018-07-10T03:45:32.903Z,20.00
2018-07-10T03:48:03.842Z,20.00
2018-07-10T03:50:35.926Z,20.00
2018-07-10T03:53:06.286Z,20.00
2018-07-10T03:55:39.187Z,20.00
2018-07-10T03:58:09.643Z,20.00
2018-07-10T04:00:40.591Z,20.00
2018-07-10T04:03:11.075Z,20.00
2018-07-10T04:05:42.002Z,19.90
2018-07-10T04:08:13.767Z,19.90
2018-07-10T04:10:44.597Z,19.80
2018-07-10T04:13:19.473Z,19.80
2018-07-10T04:15:56.173Z,19.70
2018-07-10T04:18:30.328Z,19.70
2018-07-10T04:21:33.956Z,19.80
2018-07-10T04:24:16.914Z,19.80
2018-07-10T04:27:25.950Z,19.70
2018-07-10T04:30:18.941Z,19.60
2018-07-10T04:32:49.616Z,19.60
2018-07-10T04:35:26.428Z,19.50
2018-07-10T04:37:57.322Z,19.50
2018-07-10T04:40:32.062Z,19.40
2018-07-10T04:43:06.894Z,19.30
2018-07-10T04:45:43.411Z,19.20
2018-07-10T04:48:39.898Z,19.20
2018-07-10T04:51:32.539Z,19.10
2018-07-10T04:55:15.904Z,19.10
2018-07-10T04:58:08.512Z,18.90
2018-07-10T05:00:58.681Z,18.80
2018-07-10T05:03:30.559Z,18.80
2018-07-10T05:06:07.130Z,18.80
2018-07-10T05:08:37.861Z,18.70
2018-07-10T05:11:08.709Z,18.70
2018-07-10T05:13:39.708Z,18.70
2018-07-10T05:16:10.975Z,18.80
2018-07-10T05:18:41.604Z,18.80
2018-07-10T05:21:18.139Z,18.80
2018-07-10T05:23:49.720Z,18.90
2018-07-10T05:26:20.959Z,18.90
2018-07-10T05:28:54.608Z,18.90
2018-07-10T05:31:25.653Z,19.00
2018-07-10T05:33:56.317Z,19.00
2018-07-10T05:36:26.769Z,19.10
2018-07-10T05:39:06.555Z,19.20
2018-07-10T05:41:52.096Z,19.20
2018-07-10T05:44:23.601Z,19.30
2018-07-10T05:46:57.482Z,19.40
2018-07-10T05:49:28.318Z,19.40
2018-07-10T05:51:59.031Z,19.50
2018-07-10T05:54:29.850Z,19.60
2018-07-10T05:57:00.832Z,19.70
2018-07-10T05:59:31.115Z,19.90
2018-07-10T06:02:02.266Z,20.00
2018-07-10T06:04:33.275Z,20.10
2018-07-10T06:07:04.521Z,20.20
2018-07-10T06:09:34.960Z,20.20
2018-07-10T06:12:05.266Z,20.30
2018-07-10T06:14:35.608Z,20.40
2018-07-10T06:17:06.717Z,20.50
2018-07-10T06:19:37.041Z,20.50
2018-07-10T06:22:07.787Z,20.50
2018-07-10T06:24:38.992Z,20.60
2018-07-10T06:27:09.637Z,20.60
2018-07-10T06:30:07.045Z,20.70
2018-07-10T06:32:54.752Z,20.80
2018-07-10T06:35:47.414Z,21.00
2018-07-10T06:38:19.652Z,21.20
2018-07-10T06:40:51.894Z,21.30
2018-07-10T06:43:59.514Z,21.40
2018-07-10T06:46:41.508Z,21.50
2018-07-10T06:49:36.270Z,21.60
2018-07-10T06:52:18.297Z,21.70
2018-07-10T06:55:15.430Z,21.80
2018-07-10T06:57:55.434Z,21.80
2018-07-10T07:00:26.178Z,21.90
2018-07-10T07:02:56.645Z,22.00
2018-07-10T07:05:26.951Z,22.10
2018-07-10T07:07:57.323Z,22.20
2018-07-10T07:10:27.880Z,22.30
2018-07-10T07:12:58.801Z,22.50
2018-07-10T07:15:31.777Z,22.60
2018-07-10T07:18:06.363Z,22.60
2018-07-10T07:20:36.748Z,22.80
2018-07-10T07:23:06.877Z,22.90
2018-07-10T07:25:37.102Z,22.90
2018-07-10T07:28:08.329Z,22.90
2018-07-10T07:30:38.668Z,22.80
2018-07-10T07:33:09.238Z,22.80
2018-07-10T07:35:39.710Z,23.00
2018-07-10T07:38:10.407Z,23.00
2018-07-10T07:40:41.442Z,23.00
2018-07-10T07:43:11.874Z,23.00
2018-07-10T07:45:44.033Z,23.00
2018-07-10T07:48:15.882Z,23.00
2018-07-10T07:50:46.853Z,23.10
2018-07-10T07:53:17.976Z,23.30
2018-07-10T07:55:49.006Z,23.30
2018-07-10T07:58:20.013Z,23.40
2018-07-10T08:00:50.322Z,23.50
2018-07-10T08:03:22.159Z,23.60
2018-07-10T08:05:55.261Z,23.60
2018-07-10T08:08:26.727Z,23.50
2018-07-10T08:10:57.826Z,23.40
2018-07-10T08:13:28.593Z,23.30
2018-07-10T08:15:59.200Z,23.20
2018-07-10T08:18:29.845Z,23.20
2018-07-10T08:20:59.841Z,23.20
2018-07-10T08:23:30.535Z,23.10
2018-07-10T08:26:01.909Z,23.10
2018-07-10T08:28:32.628Z,23.10
2018-07-10T08:31:04.583Z,23.10
2018-07-10T08:33:35.149Z,23.00
2018-07-10T08:36:05.535Z,23.10
2018-07-10T08:38:45.291Z,23.10
2018-07-10T08:41:26.024Z,23.10
2018-07-10T08:43:57.128Z,23.20
2018-07-10T08:46:30.207Z,23.30
2018-07-10T08:49:01.956Z,23.30
2018-07-10T08:51:32.676Z,23.60
2018-07-10T08:54:03.223Z,23.70
2018-07-10T08:56:33.544Z,23.70
2018-07-10T08:59:04.356Z,23.60
2018-07-10T09:01:34.981Z,24.00
2018-07-10T09:04:05.722Z,24.20
2018-07-10T09:06:36.200Z,24.30
2018-07-10T09:09:07.186Z,24.30
2018-07-10T09:11:37.445Z,24.20
2018-07-10T09:14:08.126Z,24.10
2018-07-10T09:16:39.468Z,24.10
2018-07-10T09:19:11.683Z,24.10
2018-07-10T09:21:48.188Z,24.00
2018-07-10T09:24:19.162Z,23.80
2018-07-10T09:26:51.532Z,23.70
2018-07-10T09:29:23.567Z,23.60
2018-07-10T09:31:56.536Z,23.70
2018-07-10T09:34:27.119Z,23.90
2018-07-10T09:36:57.339Z,24.20
2018-07-10T09:39:29.063Z,24.40
2018-07-10T09:42:00.312Z,24.70
2018-07-10T09:44:31.355Z,24.90
2018-07-10T09:47:02.085Z,25.10
2018-07-10T09:49:32.437Z,25.20
2018-07-10T09:52:02.786Z,25.30
2018-07-10T09:54:33.603Z,25.30
2018-07-10T09:57:04.432Z,25.40
2018-07-10T09:59:34.692Z,25.50
2018-07-10T10:02:09.954Z,25.60
2018-07-10T10:04:41.394Z,25.70
2018-07-10T10:07:11.784Z,25.70
2018-07-10T10:09:41.878Z,25.70
2018-07-10T10:12:19.461Z,25.70
2018-07-10T10:14:50.038Z,25.80
2018-07-10T10:17:22.066Z,25.80
2018-07-10T10:19:55.006Z,25.80
2018-07-10T10:22:26.366Z,25.90
2018-07-10T10:24:57.160Z,25.90
2018-07-10T10:27:28.970Z,25.80
2018-07-10T10:29:59.750Z,25.80
2018-07-10T10:32:30.056Z,25.80
2018-07-10T10:35:00.553Z,25.80
2018-07-10T10:37:31.307Z,25.70
2018-07-10T10:40:02.728Z,25.70
2018-07-10T10:42:33.077Z,25.70
2018-07-10T10:45:03.555Z,25.70
2018-07-10T10:47:35.046Z,25.60
2018-07-10T10:50:06.001Z,25.40
2018-07-10T10:52:36.820Z,25.10
2018-07-10T10:55:07.745Z,24.90
2018-07-10T10:57:40.083Z,24.80
2018-07-10T11:00:11.286Z,24.70
2018-07-10T11:02:42.272Z,24.80
2018-07-10T11:05:12.727Z,24.90
2018-07-10T11:07:43.467Z,25.10
2018-07-10T11:10:14.214Z,25.30
2018-07-10T11:12:45.820Z,25.50
2018-07-10T11:15:16.449Z,25.80
2018-07-10T11:18:02.102Z,26.10
2018-07-10T11:20:50.482Z,26.50
2018-07-10T11:24:00.822Z,26.70
2018-07-10T11:26:43.479Z,26.70
2018-07-10T11:29:14.489Z,26.50
2018-07-10T11:31:45.649Z,26.30
2018-07-10T11:34:16.967Z,26.00
2018-07-10T11:36:47.227Z,25.70
2018-07-10T11:39:19.598Z,25.50
2018-07-10T11:41:54.931Z,25.40
2018-07-10T11:44:25.248Z,25.30
2018-07-10T11:46:55.588Z,25.40
2018-07-10T11:49:26.471Z,25.50
2018-07-10T11:51:57.697Z,25.60
2018-07-10T11:54:28.371Z,25.60
2018-07-10T11:56:59.043Z,25.70
2018-07-10T11:59:29.405Z,25.70
2018-07-10T12:02:00.479Z,25.90
2018-07-10T12:04:35.791Z,25.90
2018-07-10T12:07:06.232Z,25.90
2018-07-10T12:09:47.000Z,25.80
2018-07-10T12:12:18.206Z,25.70
2018-07-10T12:14:48.469Z,25.70
2018-07-10T12:17:18.772Z,25.70
2018-07-10T12:19:48.984Z,25.80
2018-07-10T12:22:19.619Z,25.90
2018-07-10T12:24:50.115Z,25.90
2018-07-10T12:27:20.587Z,26.00
2018-07-10T12:29:51.568Z,26.10
2018-07-10T12:32:22.379Z,26.10
2018-07-10T12:34:53.164Z,26.10
2018-07-10T12:37:24.069Z,26.10
2018-07-10T12:39:54.569Z,26.10
2018-07-10T12:42:25.130Z,26.10
2018-07-10T12:44:55.476Z,26.20
2018-07-10T12:47:27.024Z,26.20
2018-07-10T12:49:58.591Z,26.30
2018-07-10T12:52:29.385Z,26.40
2018-07-10T12:55:01.124Z,26.40
2018-07-10T12:57:39.676Z,26.40
2018-07-10T13:00:10.239Z,26.40
2018-07-10T13:02:43.685Z,26.40
2018-07-10T13:05:16.134Z,26.40
2018-07-10T13:07:46.577Z,26.40
2018-07-10T13:10:17.301Z,26.40
2018-07-10T13:12:48.326Z,26.40
2018-07-10T13:15:18.623Z,26.40
2018-07-10T13:17:51.515Z,26.40
2018-07-10T13:20:22.041Z,26.40
2018-07-10T13:22:52.801Z,26.40
2018-07-10T13:25:22.897Z,26.50
2018-07-10T13:27:53.247Z,26.50
2018-07-10T13:30:23.865Z,26.50
2018-07-10T13:32:55.438Z,26.50
2018-07-10T13:35:25.621Z,26.40
2018-07-10T13:37:56.509Z,26.50
2018-07-10T13:40:27.575Z,26.50
2018-07-10T13:43:00.309Z,26.50
2018-07-10T13:45:31.812Z,26.50
2018-07-10T13:48:02.703Z,26.40
2018-07-10T13:50:34.122Z,26.40
2018-07-10T13:53:04.961Z,26.50
2018-07-10T13:55:35.485Z,26.90
2018-07-10T13:58:12.395Z,27.60
2018-07-10T14:00:47.358Z,28.70
2018-07-10T14:03:18.679Z,30.10
2018-07-10T14:05:49.472Z,31.50
2018-07-10T14:08:20.387Z,32.80
2018-07-10T14:10:51.996Z,33.50
2018-07-10T14:13:22.458Z,34.40
2018-07-10T14:15:52.966Z,35.00
2018-07-10T14:18:24.885Z,35.50
2018-07-10T14:21:06.641Z,36.30
2018-07-10T14:23:37.312Z,37.30
2018-07-10T14:26:08.115Z,38.20
2018-07-10T14:29:03.126Z,38.80
2018-07-10T14:31:34.468Z,39.50
2018-07-10T14:34:05.507Z,40.20
2018-07-10T14:36:36.008Z,40.80
2018-07-10T14:39:06.389Z,41.60
2018-07-10T14:41:37.425Z,42.40
2018-07-10T14:44:08.259Z,43.30
2018-07-10T14:46:39.260Z,44.10
2018-07-10T14:49:10.698Z,44.40
2018-07-10T14:51:46.149Z,44.70
2018-07-10T14:54:16.823Z,44.90
2018-07-10T14:56:48.285Z,45.40
2018-07-10T14:59:18.601Z,45.80
2018-07-10T15:01:49.041Z,46.10
2018-07-10T15:04:19.774Z,46.50
2018-07-10T15:06:50.600Z,46.60
2018-07-10T15:09:21.191Z,46.90
2018-07-10T15:11:51.939Z,47.30
2018-07-10T15:14:22.598Z,47.60
2018-07-10T15:16:58.940Z,48.00
2018-07-10T15:19:29.595Z,48.30
2018-07-10T15:22:00.308Z,48.30
2018-07-10T15:24:31.430Z,48.10
2018-07-10T15:27:01.916Z,47.60
2018-07-10T15:29:33.096Z,47.20
2018-07-10T15:32:03.746Z,46.70
2018-07-10T15:34:35.017Z,46.70
2018-07-10T15:37:05.589Z,46.90
2018-07-10T15:39:36.665Z,47.10
2018-07-10T15:42:06.841Z,47.40
2018-07-10T15:44:36.972Z,47.60
2018-07-10T15:47:07.648Z,47.80
2018-07-10T15:49:38.158Z,47.80
2018-07-10T15:52:08.631Z,47.90
2018-07-10T15:54:40.109Z,48.10
2018-07-10T15:57:10.393Z,48.20
2018-07-10T15:59:40.597Z,48.30
2018-07-10T16:02:11.885Z,48.50
2018-07-10T16:04:42.275Z,48.80
2018-07-10T16:07:12.484Z,48.80
2018-07-10T16:09:43.726Z,48.80
2018-07-10T16:12:15.665Z,48.80
2018-07-10T16:14:47.513Z,48.70
2018-07-10T16:17:23.074Z,48.70
2018-07-10T16:20:16.919Z,48.70
2018-07-10T16:22:48.486Z,48.60
2018-07-10T16:25:34.485Z,48.50
2018-07-10T16:28:27.197Z,48.40
2018-07-10T16:30:58.762Z,48.30
2018-07-10T16:33:34.482Z,48.40
2018-07-10T16:36:08.284Z,48.40
2018-07-10T16:38:39.838Z,48.60
2018-07-10T16:41:17.915Z,48.70
2018-07-10T16:43:49.135Z,48.70
2018-07-10T16:46:28.846Z,48.60
2018-07-10T16:50:12.278Z,48.50
2018-07-10T16:52:56.420Z,48.30
2018-07-10T16:55:28.329Z,48.20
2018-07-10T16:57:59.736Z,47.60
2018-07-10T17:00:32.318Z,47.40
2018-07-10T17:03:03.525Z,47.30
2018-07-10T17:05:34.369Z,47.20
2018-07-10T17:08:06.284Z,47.10
2018-07-10T17:10:37.336Z,47.10
2018-07-10T17:13:08.490Z,47.10
2018-07-10T17:15:46.564Z,47.00
2018-07-10T17:18:18.427Z,47.00
2018-07-10T17:20:49.475Z,47.00
2018-07-10T17:23:22.541Z,46.80
2018-07-10T17:26:00.271Z,46.60
2018-07-10T17:28:32.218Z,46.50
2018-07-10T17:31:03.708Z,46.50
2018-07-10T17:33:35.341Z,46.60
2018-07-10T17:36:05.559Z,46.60
2018-07-10T17:38:36.920Z,46.80
2018-07-10T17:41:09.391Z,46.70
2018-07-10T17:43:39.924Z,46.60
2018-07-10T17:46:10.444Z,46.50
2018-07-10T17:48:41.127Z,46.30
2018-07-10T17:51:12.145Z,46.20
2018-07-10T17:53:42.749Z,46.00
2018-07-10T17:56:14.637Z,45.90
2018-07-10T17:58:46.059Z,45.80
2018-07-10T18:01:16.800Z,45.70
2018-07-10T18:03:48.886Z,45.60
2018-07-10T18:06:19.973Z,45.50
2018-07-10T18:08:50.800Z,45.40
2018-07-10T18:11:21.210Z,45.30
2018-07-10T18:13:51.869Z,45.20
2018-07-10T18:16:22.966Z,45.00
2018-07-10T18:18:53.529Z,44.80
2018-07-10T18:21:24.001Z,44.60
2018-07-10T18:23:54.173Z,44.40
2018-07-10T18:26:24.510Z,44.10
2018-07-10T18:28:55.612Z,43.80
2018-07-10T18:31:26.236Z,43.40
2018-07-10T18:34:04.232Z,43.10
2018-07-10T18:36:35.715Z,42.80
2018-07-10T18:39:07.665Z,42.60
2018-07-10T18:44:26.895Z,42.30
2018-07-10T18:47:03.687Z,42.10
2018-07-10T18:49:34.944Z,41.90
2018-07-10T18:52:05.331Z,41.70
2018-07-10T18:54:54.447Z,41.50
2018-07-10T18:58:13.585Z,41.30
2018-07-10T19:01:58.873Z,41.00
2018-07-10T19:05:13.219Z,40.60
2018-07-10T19:07:43.707Z,40.00
2018-07-10T19:10:15.083Z,39.90
2018-07-10T19:12:45.828Z,39.50
2018-07-10T19:15:20.626Z,38.90
2018-07-10T19:17:51.734Z,38.20
2018-07-10T19:20:30.805Z,37.50
2018-07-10T19:23:08.828Z,36.70
2018-07-10T19:25:40.057Z,36.10
2018-07-10T19:28:24.446Z,35.40
2018-07-10T19:31:02.371Z,34.80
2018-07-10T19:33:41.444Z,34.30
2018-07-10T19:36:23.121Z,33.60
2018-07-10T19:38:59.612Z,33.10
2018-07-10T19:41:39.672Z,32.50
2018-07-10T19:44:10.021Z,32.00
2018-07-10T19:46:40.573Z,31.60
2018-07-10T19:49:13.417Z,31.20
2018-07-10T19:51:48.078Z,30.80
2018-07-10T19:54:19.646Z,30.50
2018-07-10T19:56:58.382Z,30.20
2018-07-10T19:59:30.762Z,29.80
2018-07-10T20:02:02.777Z,29.50
2018-07-10T20:05:16.319Z,29.30
2018-07-10T20:08:00.750Z,28.90
2018-07-10T20:10:58.112Z,28.60
2018-07-10T20:13:46.558Z,28.30
2018-07-10T20:16:56.576Z,28.10
2018-07-10T20:20:36.466Z,27.90
2018-07-10T20:23:43.677Z,27.60
2018-07-10T20:26:51.183Z,27.40
2018-07-10T20:30:09.212Z,27.20
2018-07-10T20:33:17.698Z,27.00
2018-07-10T20:35:52.641Z,26.80
2018-07-10T20:38:23.955Z,26.70
2018-07-10T20:40:56.390Z,26.60
2018-07-10T20:43:27.943Z,26.50
2018-07-10T20:46:00.907Z,26.40
2018-07-10T20:48:57.628Z,26.30
2018-07-10T20:51:33.847Z,26.20
2018-07-10T20:54:33.208Z,26.20
2018-07-10T20:57:48.334Z,26.00
2018-07-10T21:00:24.941Z,25.90
2018-07-10T21:03:14.826Z,25.80
2018-07-10T21:05:51.446Z,25.70
2018-07-10T21:09:06.541Z,25.50
2018-07-10T21:11:59.254Z,25.30
2018-07-10T21:16:57.683Z,25.10
2018-07-10T21:19:45.608Z,24.70
2018-07-10T21:24:41.024Z,24.50
2018-07-10T21:27:24.262Z,24.20
2018-07-10T21:30:11.524Z,23.80
2018-07-10T21:34:50.336Z,23.90
2018-07-10T21:39:46.532Z,23.60
2018-07-10T21:44:43.746Z,23.30
2018-07-10T21:49:35.988Z,23.00
2018-07-10T21:52:06.513Z,22.70
2018-07-10T21:54:37.984Z,22.60
2018-07-10T21:57:08.691Z,22.60
2018-07-10T21:59:48.616Z,22.50
2018-07-10T22:02:21.865Z,22.50
2018-07-10T22:04:57.756Z,22.40
2018-07-10T22:07:30.745Z,22.30
2018-07-10T22:10:08.251Z,22.20
2018-07-10T22:12:47.561Z,22.20
2018-07-10T22:15:18.864Z,22.10
2018-07-10T22:17:49.688Z,22.10
2018-07-10T22:20:20.823Z,22.00
2018-07-10T22:22:51.481Z,21.90
2018-07-10T22:25:21.991Z,21.90
2018-07-10T22:27:52.462Z,21.80
2018-07-10T22:30:28.911Z,21.70
2018-07-10T22:33:03.227Z,21.60
2018-07-10T22:35:35.417Z,21.60
2018-07-10T22:38:06.610Z,21.50
2018-07-10T22:40:38.424Z,21.50
2018-07-10T22:43:09.949Z,21.40
2018-07-10T22:45:40.317Z,21.40
2018-07-10T22:48:10.953Z,21.30
2018-07-10T22:50:41.330Z,21.30
2018-07-10T22:53:11.765Z,21.20
2018-07-10T22:55:42.279Z,21.10
2018-07-10T22:58:13.426Z,21.10
2018-07-10T23:00:43.837Z,21.00
2018-07-10T23:03:22.389Z,21.00
2018-07-10T23:05:53.842Z,20.90
2018-07-10T23:08:34.880Z,20.80
2018-07-10T23:11:07.474Z,20.80
2018-07-10T23:13:43.780Z,20.70
2018-07-10T23:16:14.751Z,20.60
2018-07-10T23:18:47.899Z,20.60
2018-07-10T23:21:20.636Z,20.50
2018-07-10T23:23:51.325Z,20.40
2018-07-10T23:26:22.074Z,20.40
2018-07-10T23:28:55.090Z,20.30
2018-07-10T23:31:30.147Z,20.30
2018-07-10T23:34:10.808Z,20.30
2018-07-10T23:36:41.625Z,20.20
2018-07-10T23:39:20.626Z,20.20
2018-07-10T23:41:55.800Z,20.10
2018-07-10T23:44:45.078Z,20.10
2018-07-10T23:47:49.720Z,20.00
2018-07-10T23:50:29.158Z,19.90
2018-07-10T23:55:13.785Z,19.90
2018-07-10T23:57:44.197Z,19.70
